Aviation Digital Data Service (ADDS)

Output produced by METARs form (0739 UTC 26 April 2018)
found at http://aviationweather.gov/adds/metars/
 
KTOL 260520Z 2606/2706 VRB03KT P6SM BKN012 
     TEMPO 2606/2609 SCT012 BKN035 
     FM260900 VRB04KT 6SM BR SCT012 
     TEMPO 2609/2613 4SM BR BKN012 
     FM261500 30005KT P6SM SCT250